Time;durP1;ratioP1;P1;durP2;ratioP2;P2;SDS_P1;SDS_P2;PMS_P1;PMS_P2;Temp;Humidity;BMP_temperature;BMP_pressure;BME280_temperature;BME280_humidity;BME280_pressure;Samples;Min_cycle;Max_cycle;Signal;HPM_P1;HPM_P2
2023/02/13 00:00:06;;;;;;;;;48.50;42.00;;;;;10.19;60.19;102867.63;2105252;27;46180;-61
2023/02/13 00:01:06;;;;;;;;;47.00;40.20;;;;;10.17;60.15;102867.63;2094624;28;46458;-60
2023/02/13 00:02:07;;;;;;;;;47.75;40.75;;;;;10.16;60.21;102870.22;2095333;28;46871;-62
2023/02/13 00:03:07;;;;;;;;;52.25;44.25;;;;;10.15;60.33;102868.44;2096953;28;46211;-62
2023/02/13 00:04:08;;;;;;;;;51.00;42.00;;;;;10.14;60.49;102870.19;2097549;28;46261;-62
2023/02/13 00:05:08;;;;;;;;;45.25;39.00;;;;;10.12;60.43;102871.94;2107163;27;46248;-61
2023/02/13 00:06:08;;;;;;;;;49.25;42.25;;;;;10.12;60.48;102866.63;2113321;27;46318;-61
2023/02/13 00:07:10;;;;;;;;;52.00;42.50;;;;;10.11;60.58;102862.19;2112343;27;46066;-62
2023/02/13 00:08:11;;;;;;;;;51.60;42.20;;;;;10.12;60.31;102863.09;2108873;27;46817;-60
2023/02/13 00:09:11;;;;;;;;;49.50;40.75;;;;;10.10;60.48;102862.19;2095939;28;45812;-63
2023/02/13 00:10:11;;;;;;;;;47.75;41.50;;;;;10.10;60.23;102864.84;2107054;27;46686;-62
2023/02/13 00:11:12;;;;;;;;;44.00;38.25;;;;;10.07;60.49;102872.75;2100555;28;47047;-62
2023/02/13 00:12:12;;;;;;;;;48.75;40.25;;;;;10.05;60.27;102866.53;2108208;27;46620;-62
2023/02/13 00:13:12;;;;;;;;;53.00;44.00;;;;;10.03;60.18;102869.16;2100525;27;46322;-60
2023/02/13 00:14:13;;;;;;;;;51.50;42.75;;;;;10.01;60.32;102868.22;2104483;28;45573;-59
2023/02/13 00:15:13;;;;;;;;;53.50;42.75;;;;;9.99;60.43;102870.88;2110641;27;46394;-63
2023/02/13 00:16:13;;;;;;;;;53.75;44.50;;;;;9.96;60.57;102872.59;2111010;27;46855;-62
2023/02/13 00:17:14;;;;;;;;;46.00;39.75;;;;;9.94;60.37;102871.69;2113760;27;45541;-63
2023/02/13 00:18:14;;;;;;;;;46.25;40.00;;;;;9.90;60.29;102869.81;2104965;27;46402;-62
2023/02/13 00:19:15;;;;;;;;;44.75;38.25;;;;;9.89;60.60;102871.59;2096770;28;46299;-63
2023/02/13 00:20:16;;;;;;;;;54.75;44.50;;;;;9.86;60.71;102870.66;2110112;27;47026;-62
2023/02/13 00:21:16;;;;;;;;;47.25;40.50;;;;;9.84;60.67;102870.63;2107853;27;46647;-64
2023/02/13 00:22:16;;;;;;;;;51.50;40.50;;;;;9.83;60.72;102870.63;2111205;27;46706;-62
2023/02/13 00:23:16;;;;;;;;;52.50;42.25;;;;;9.83;61.15;102874.16;2111126;27;45639;-62
2023/02/13 00:24:17;;;;;;;;;55.00;44.25;;;;;9.85;61.13;102879.47;2111563;27;46788;-64
2023/02/13 00:25:17;;;;;;;;;50.75;40.75;;;;;9.86;61.14;102873.31;2096795;28;46460;-63
2023/02/13 00:26:17;;;;;;;;;47.75;39.50;;;;;9.88;61.25;102874.22;2100434;28;46570;-63
2023/02/13 00:27:18;;;;;;;;;51.25;43.50;;;;;9.88;61.24;102869.81;2097544;28;46618;-62
2023/02/13 00:28:18;;;;;;;;;50.00;42.00;;;;;9.92;61.14;102868.13;2111324;27;46728;-62
2023/02/13 00:29:18;;;;;;;;;45.75;38.50;;;;;9.92;61.24;102871.66;2108044;27;46404;-62
2023/02/13 00:30:20;;;;;;;;;50.25;41.50;;;;;9.94;61.28;102872.56;2111914;27;46687;-62
2023/02/13 00:31:20;;;;;;;;;52.60;40.40;;;;;9.94;61.20;102872.56;2109404;27;46936;-64
2023/02/13 00:32:21;;;;;;;;;51.75;43.00;;;;;9.96;61.09;102867.28;2111328;27;46363;-63
2023/02/13 00:33:21;;;;;;;;;60.50;47.50;;;;;9.96;61.17;102862.88;2097014;28;46889;-63
2023/02/13 00:34:21;;;;;;;;;50.25;42.25;;;;;9.98;61.18;102866.44;2101604;27;46604;-63
2023/02/13 00:35:22;;;;;;;;;51.75;42.75;;;;;10.00;61.17;102869.09;2104867;27;46615;-64
2023/02/13 00:36:23;;;;;;;;;51.00;43.00;;;;;10.01;61.14;102862.94;2102240;27;46130;-62
2023/02/13 00:37:24;;;;;;;;;53.80;44.00;;;;;10.03;61.13;102862.06;2105022;27;46360;-62
2023/02/13 00:38:24;;;;;;;;;51.40;42.20;;;;;10.06;60.99;102863.91;2100800;27;45969;-62
2023/02/13 00:39:25;;;;;;;;;48.25;41.75;;;;;10.08;60.98;102861.28;2099846;27;46396;-62
2023/02/13 00:40:25;;;;;;;;;56.25;46.50;;;;;10.10;61.18;102863.06;2100054;27;47214;-62
2023/02/13 00:41:25;;;;;;;;;46.25;38.75;;;;;10.11;60.83;102856.91;2102451;27;46087;-63
2023/02/13 00:42:26;;;;;;;;;50.50;41.25;;;;;10.10;60.92;102860.41;2103840;27;46377;-63
2023/02/13 00:43:26;;;;;;;;;54.25;44.00;;;;;10.10;61.00;102863.06;2103972;27;46778;-63
2023/02/13 00:44:26;;;;;;;;;53.25;44.75;;;;;10.10;60.69;102868.38;2096514;28;46646;-63
2023/02/13 00:45:27;;;;;;;;;58.00;46.25;;;;;10.09;60.75;102861.28;2100139;28;47048;-62
2023/02/13 00:46:27;;;;;;;;;47.00;41.50;;;;;10.08;60.77;102861.28;2102635;28;46328;-61
2023/02/13 00:47:27;;;;;;;;;52.75;43.25;;;;;10.07;60.66;102857.72;2112619;27;46692;-62
2023/02/13 00:48:30;;;;;;;;;51.00;43.50;;;;;10.06;60.99;102858.59;2112481;27;46487;-64
2023/02/13 00:49:30;;;;;;;;;55.00;45.40;;;;;10.06;60.69;102868.31;2096450;28;46385;-63
2023/02/13 00:50:30;;;;;;;;;51.75;42.50;;;;;10.04;60.85;102868.31;2102263;28;46970;-64
2023/02/13 00:51:31;;;;;;;;;51.25;43.00;;;;;10.03;60.72;102869.16;2105135;27;46228;-63
2023/02/13 00:52:31;;;;;;;;;51.75;42.75;;;;;10.02;60.71;102862.94;2111889;27;46449;-64
2023/02/13 00:53:32;;;;;;;;;48.00;40.00;;;;;10.06;61.05;102868.31;2100383;27;46681;-65
2023/02/13 00:54:33;;;;;;;;;57.20;46.40;;;;;10.06;60.83;102866.56;2096435;28;46531;-63
2023/02/13 00:55:34;;;;;;;;;53.00;44.00;;;;;10.07;60.70;102870.09;2104431;27;46528;-62
2023/02/13 00:56:34;;;;;;;;;52.60;43.20;;;;;10.07;60.78;102856.84;2104902;27;46698;-64
2023/02/13 00:57:35;;;;;;;;;53.50;42.75;;;;;10.06;60.82;102855.06;2104867;28;46625;-62
2023/02/13 00:58:35;;;;;;;;;53.25;43.75;;;;;10.06;60.70;102855.94;2100172;28;46362;-63
2023/02/13 00:59:36;;;;;;;;;53.00;43.50;;;;;10.07;60.92;102859.50;2093900;28;46198;-63
2023/02/13 01:00:37;;;;;;;;;48.50;39.25;;;;;10.09;60.80;102852.44;2096582;28;46329;-63
2023/02/13 01:01:37;;;;;;;;;46.60;38.20;;;;;10.09;60.55;102861.28;2100488;28;46306;-64
2023/02/13 01:02:37;;;;;;;;;43.25;36.75;;;;;10.09;60.74;102857.75;2105011;28;46567;-63
2023/02/13 01:03:38;;;;;;;;;49.00;41.00;;;;;10.08;60.54;102855.97;2104616;27;46626;-63
2023/02/13 01:04:38;;;;;;;;;45.00;38.00;;;;;10.06;60.83;102858.59;2104909;28;46266;-63
2023/02/13 01:05:39;;;;;;;;;42.00;37.25;;;;;10.05;60.47;102864.78;2104646;27;46336;-63
2023/02/13 01:06:39;;;;;;;;;62.25;49.25;;;;;10.02;60.91;102856.75;2104194;28;46273;-62
2023/02/13 01:07:39;;;;;;;;;62.00;50.00;;;;;10.03;60.71;102855.88;2104761;28;45505;-64
2023/02/13 01:08:40;;;;;;;;;66.50;50.00;;;;;10.03;60.96;102862.06;2104407;28;46691;-64
2023/02/13 01:09:41;;;;;;;;;77.50;60.25;;;;;10.05;60.95;102862.13;2104529;27;45797;-63
2023/02/13 01:10:44;;;;;;;;;70.50;56.00;;;;;10.07;60.72;102856.84;2103671;28;46124;-64
2023/02/13 01:11:44;;;;;;;;;72.40;57.80;;;;;10.05;61.16;102864.78;2096228;28;46491;-62
2023/02/13 01:12:44;;;;;;;;;69.25;53.50;;;;;10.06;60.74;102855.06;2102635;27;46594;-62
2023/02/13 01:13:45;;;;;;;;;71.25;55.00;;;;;10.05;61.09;102850.63;2104417;28;46474;-63
2023/02/13 01:14:45;;;;;;;;;71.25;56.50;;;;;10.04;60.84;102852.38;2104343;28;46392;-61
2023/02/13 01:15:47;;;;;;;;;116.33;109.33;;;;;10.03;61.05;102850.56;2102501;28;45546;-62
2023/02/13 01:16:47;;;;;;;;;119.00;103.67;;;;;10.05;61.01;102855.94;2096455;28;45955;-64
2023/02/13 01:17:48;;;;;;;;;111.00;102.67;;;;;10.05;60.88;102846.22;2102001;28;45916;-62
2023/02/13 01:18:48;;;;;;;;;114.00;99.67;;;;;10.07;60.84;102846.22;2104873;28;46257;-62
2023/02/13 01:19:48;;;;;;;;;95.25;87.75;;;;;10.07;60.78;102852.44;2104499;28;46478;-62
2023/02/13 01:20:58;;;;;;;;;72.00;56.75;;;;;10.08;60.84;102848.91;2103805;27;46515;-61
2023/02/13 01:21:59;;;;;;;;;64.80;51.60;;;;;10.09;60.74;102849.78;2104053;27;46732;-62
2023/02/13 01:22:59;;;;;;;;;57.00;46.00;;;;;10.08;60.71;102848.91;2104480;28;46872;-63
2023/02/13 01:24:02;;;;;;;;;56.25;46.25;;;;;10.08;60.57;102845.34;2099689;27;45886;-62
2023/02/13 01:25:04;;;;;;;;;56.20;46.20;;;;;10.07;60.82;102849.78;2096385;28;46497;-62
2023/02/13 01:26:07;;;;;;;;;53.40;42.80;;;;;10.08;60.70;102851.56;2101559;28;47212;-62
2023/02/13 01:27:07;;;;;;;;;53.80;43.40;;;;;10.06;60.55;102848.00;2098671;28;47060;-63
2023/02/13 01:28:08;;;;;;;;;52.75;44.75;;;;;10.07;60.50;102844.47;2095748;28;46285;-62
2023/02/13 01:29:12;;;;;;;;;46.50;40.25;;;;;10.08;60.81;102853.31;2097370;28;46329;-62
2023/02/13 01:30:14;;;;;;;;;50.00;42.40;;;;;10.08;60.74;102846.25;2104646;28;46598;-62
2023/02/13 01:31:14;;;;;;;;;39.60;36.20;;;;;10.08;60.47;102854.22;2097744;28;46291;-61
2023/02/13 01:32:15;;;;;;;;;50.00;43.00;;;;;10.08;60.38;102851.56;2098957;28;45634;-63
2023/02/13 01:33:15;;;;;;;;;48.50;38.50;;;;;10.07;60.70;102854.19;2103053;28;46417;-62
2023/02/13 01:34:15;;;;;;;;;47.25;40.00;;;;;10.06;60.55;102849.75;2104537;28;46273;-63
2023/02/13 01:35:16;;;;;;;;;56.75;43.00;;;;;10.07;60.80;102843.56;2100289;27;46252;-63
2023/02/13 01:36:16;;;;;;;;;54.00;43.75;;;;;10.08;60.80;102855.97;2101779;28;46333;-62
2023/02/13 01:37:17;;;;;;;;;51.50;42.75;;;;;10.09;60.74;102856.00;2104585;28;46810;-62
2023/02/13 01:38:18;;;;;;;;;51.75;42.50;;;;;10.09;60.49;102850.69;2098424;27;46738;-63
2023/02/13 01:39:18;;;;;;;;;47.80;39.20;;;;;10.07;60.58;102852.44;2111621;27;46823;-61
2023/02/13 01:40:18;;;;;;;;;51.50;42.00;;;;;10.07;60.55;102852.44;2103799;28;46608;-63
2023/02/13 01:41:19;;;;;;;;;56.75;47.00;;;;;10.06;60.64;102845.34;2104784;28;46646;-62
2023/02/13 01:42:30;;;;;;;;;50.75;42.00;;;;;10.05;60.56;102848.88;2103701;28;46172;-62
2023/02/13 01:43:55;;;;;;;;;52.40;40.80;;;;;10.02;60.41;102846.13;2104785;28;46576;-64
2023/02/13 01:44:59;;;;;;;;;50.60;42.80;;;;;9.99;60.31;102848.75;2103245;28;46559;-62
2023/02/13 01:46:01;;;;;;;;;49.20;40.00;;;;;9.98;60.44;102854.94;2104683;28;46526;-62
2023/02/13 01:47:01;;;;;;;;;50.20;42.20;;;;;9.96;60.42;102849.59;2104283;28;45824;-62
2023/02/13 01:48:07;;;;;;;;;56.00;43.75;;;;;9.95;60.47;102854.91;2104336;28;45672;-62
2023/02/13 01:49:17;;;;;;;;;49.80;42.20;;;;;9.92;60.44;102850.44;2102378;28;46687;-62
2023/02/13 01:50:23;;;;;;;;;51.40;41.40;;;;;9.89;60.39;102854.78;2101453;28;46468;-63
2023/02/13 01:51:28;;;;;;;;;46.60;38.00;;;;;9.84;60.49;102852.06;2104673;27;46433;-62
2023/02/13 01:52:29;;;;;;;;;49.60;39.80;;;;;9.82;60.28;102847.63;2101776;28;47329;-61
2023/02/13 01:53:34;;;;;;;;;41.75;36.75;;;;;9.81;60.72;102859.09;2101626;28;46881;-62
2023/02/13 01:54:35;;;;;;;;;50.40;43.00;;;;;9.78;60.44;102851.06;2103339;28;46476;-62
2023/02/13 01:55:45;;;;;;;;;49.75;42.00;;;;;9.75;60.54;102854.56;2104596;28;46551;-62
2023/02/13 01:56:50;;;;;;;;;51.40;41.80;;;;;9.74;60.95;102848.38;2104813;27;47001;-61
2023/02/13 01:57:57;;;;;;;;;49.00;40.20;;;;;9.75;60.74;102851.91;2104585;28;46425;-61
2023/02/13 01:59:02;;;;;;;;;49.20;42.20;;;;;9.75;60.72;102846.63;2104236;27;47061;-62
2023/02/13 02:00:08;;;;;;;;;45.80;39.00;;;;;9.75;60.95;102851.91;2104350;28;46816;-62
2023/02/13 02:01:09;;;;;;;;;55.00;42.20;;;;;9.77;60.93;102852.84;2096625;28;46416;-62
2023/02/13 02:02:10;;;;;;;;;52.60;43.20;;;;;9.73;60.77;102851.91;2103816;28;46529;-63
2023/02/13 02:03:17;;;;;;;;;49.50;41.50;;;;;9.73;60.50;102845.72;2103509;28;46229;-63
2023/02/13 02:04:24;;;;;;;;;50.60;42.20;;;;;9.71;60.85;102847.44;2086837;28;46114;-63
2023/02/13 02:05:27;;;;;;;;;50.40;42.00;;;;;9.69;60.94;102854.50;2101269;27;45130;-63
2023/02/13 02:06:33;;;;;;;;;50.60;41.60;;;;;9.68;60.99;102856.25;2108031;27;46381;-62
2023/02/13 02:07:37;;;;;;;;;51.20;43.20;;;;;9.67;60.78;102850.94;2096039;28;46862;-61
2023/02/13 02:08:37;;;;;;;;;49.00;39.40;;;;;9.66;61.04;102847.38;2099906;27;47174;-62
2023/02/13 02:09:41;;;;;;;;;49.60;40.40;;;;;9.66;60.76;102847.38;2096412;27;46528;-62
2023/02/13 02:10:42;;;;;;;;;55.40;47.00;;;;;9.64;60.89;102842.91;2102613;27;46464;-62
2023/02/13 02:11:53;;;;;;;;;53.75;43.00;;;;;9.61;60.92;102843.75;2104229;27;46814;-61
2023/02/13 02:13:11;;;;;;;;;54.40;43.40;;;;;9.59;60.66;102841.94;2105958;27;46388;-64
2023/02/13 02:14:11;;;;;;;;;54.60;44.60;;;;;9.57;60.89;102838.38;2113131;27;46550;-62
2023/02/13 02:15:12;;;;;;;;;39.00;36.50;;;;;9.56;60.84;102844.56;2112174;27;46815;-64
2023/02/13 02:16:13;;;;;;;;;52.00;41.00;;;;;9.55;61.03;102843.66;2103813;27;47150;-62
2023/02/13 02:17:13;;;;;;;;;57.25;44.50;;;;;9.54;60.83;102844.53;2113113;27;46727;-61
2023/02/13 02:18:16;;;;;;;;;50.50;43.25;;;;;9.55;61.10;102846.31;2108231;27;46165;-62
2023/02/13 02:19:41;;;;;;;;;53.40;42.80;;;;;9.55;60.80;102856.91;2103779;28;46612;-62
2023/02/13 02:20:50;;;;;;;;;48.20;40.40;;;;;9.54;60.93;102848.94;2103246;28;47081;-61
2023/02/13 02:22:11;;;;;;;;;52.40;42.00;;;;;9.53;61.06;102850.72;2110947;27;46314;-64
2023/02/13 02:23:48;;;;;;;;;51.60;44.40;;;;;9.50;61.24;102855.94;2096398;27;46664;-64
2023/02/13 02:25:39;;;;;;;;;53.60;44.40;;;;;9.49;61.09;102851.50;2101168;27;46388;-62
2023/02/13 02:26:58;;;;;;;;;54.20;42.60;;;;;9.46;61.19;102840.84;2101071;28;46687;-64
2023/02/13 02:28:16;;;;;;;;;55.20;45.00;;;;;9.47;61.10;102852.34;2096007;28;46578;-65
2023/02/13 02:29:30;;;;;;;;;50.20;42.60;;;;;9.47;61.08;102853.22;2101336;28;46043;-64
2023/02/13 02:30:58;;;;;;;;;49.00;41.20;;;;;9.46;61.12;102848.81;2091007;28;47011;-64
2023/02/13 02:32:24;;;;;;;;;50.60;41.60;;;;;9.44;61.05;102854.09;2095921;28;47081;-63
2023/02/13 02:33:42;;;;;;;;;53.40;45.00;;;;;9.43;61.11;102849.66;2101089;28;46341;-64
2023/02/13 02:34:54;;;;;;;;;49.60;39.20;;;;;9.41;60.99;102851.38;2096116;28;47036;-62
2023/02/13 02:36:38;;;;;;;;;53.20;44.40;;;;;9.40;61.10;102844.31;2089661;28;46539;-62
2023/02/13 02:37:53;;;;;;;;;54.20;45.40;;;;;9.39;60.98;102847.78;2093030;28;45321;-65
2023/02/13 02:39:13;;;;;;;;;52.20;44.40;;;;;9.39;61.00;102846.91;2094782;28;46357;-63
2023/02/13 02:40:41;;;;;;;;;54.20;45.00;;;;;9.39;61.25;102836.31;2103039;28;47039;-63
2023/02/13 02:42:08;;;;;;;;;56.40;45.00;;;;;9.39;61.01;102839.84;2095047;28;46278;-63
2023/02/13 02:43:30;;;;;;;;;51.40;42.80;;;;;9.39;60.84;102836.31;2094073;28;46842;-63
2023/02/13 02:44:45;;;;;;;;;53.60;45.60;;;;;9.37;60.99;102832.75;2094220;28;46294;-62
2023/02/13 02:45:56;;;;;;;;;56.60;46.00;;;;;9.36;61.06;102833.59;2092795;28;46603;-62
2023/02/13 02:50:31;;;;;;;;;46.40;40.60;;;;;9.31;61.11;102830.88;2103464;28;45970;-63
2023/02/13 02:51:53;;;;;;;;;53.40;44.00;;;;;9.31;61.14;102830.88;2102982;28;46034;-63
2023/02/13 02:53:25;;;;;;;;;54.40;45.20;;;;;9.31;61.13;102840.59;2086588;28;46689;-62
2023/02/13 02:55:05;;;;;;;;;47.00;41.00;;;;;9.30;61.21;102837.06;2070064;28;46030;-62
2023/02/13 02:56:16;;;;;;;;;51.80;43.40;;;;;9.29;61.09;102831.72;2037565;28;46431;-66
2023/02/13 02:57:23;;;;;;;;;59.40;48.00;;;;;9.29;61.15;102835.28;2040815;28;46043;-64
2023/02/13 03:06:53;;;;;;;;;54.00;45.40;;;;;9.21;61.21;102834.25;2056920;28;46771;-63
2023/02/13 03:07:54;;;;;;;;;47.60;40.40;;;;;9.22;61.03;102832.47;2061543;28;46624;-63
2023/02/13 03:13:27;;;;;;;;;51.80;43.00;;;;;9.23;61.11;102842.22;2063074;28;46833;-64
2023/02/13 03:14:28;;;;;;;;;51.00;42.40;;;;;9.21;60.96;102843.94;2062663;28;46382;-63
2023/02/13 03:15:29;;;;;;;;;53.25;43.25;;;;;9.21;61.00;102844.84;2062965;28;46366;-62
2023/02/13 03:22:22;;;;;;;;;51.20;41.80;;;;;9.17;61.07;102840.34;2055252;28;46360;-62
2023/02/13 03:23:58;;;;;;;;;54.20;46.20;;;;;9.16;61.19;102845.63;2053791;28;46868;-63
2023/02/13 03:25:29;;;;;;;;;32.20;30.00;;;;;9.14;61.11;102849.13;2058102;28;46878;-62
2023/02/13 03:26:49;;;;;;;;;58.80;46.60;;;;;9.12;61.26;102845.56;2062289;28;47224;-63
2023/02/13 03:30:06;;;;;;;;;52.40;43.40;;;;;9.07;61.18;102841.94;2062218;28;46383;-65
2023/02/13 03:31:30;;;;;;;;;54.20;45.00;;;;;9.06;61.09;102844.56;2030070;29;47383;-63
2023/02/13 03:33:02;;;;;;;;;49.40;41.80;;;;;9.05;61.26;102848.06;2041325;28;46946;-62
2023/02/13 03:34:09;;;;;;;;;49.40;41.40;;;;;9.03;61.34;102848.06;2066137;28;46714;-63
2023/02/13 03:38:07;;;;;;;;;55.20;43.00;;;;;9.01;61.43;102840.91;2074694;28;46995;-61
2023/02/13 03:39:18;;;;;;;;;53.00;44.20;;;;;9.01;61.26;102847.09;2074915;28;45992;-62
2023/02/13 03:41:17;;;;;;;;;48.60;40.00;;;;;9.01;61.20;102841.81;2073089;28;46392;-63
2023/02/13 03:42:04;;;;;;;;;53.00;42.60;;;;;9.01;61.54;102849.75;2075876;28;46619;-63
2023/02/13 03:43:13;;;;;;;;;53.60;45.40;;;;;8.99;61.48;102843.53;2073819;28;45869;-63
2023/02/13 03:44:36;;;;;;;;;47.00;39.20;;;;;8.99;61.33;102840.88;2071021;28;46511;-62
2023/02/13 03:45:52;;;;;;;;;56.20;45.60;;;;;8.98;61.38;102833.81;2071652;28;46297;-62
2023/02/13 03:46:57;;;;;;;;;53.40;44.20;;;;;8.99;61.30;102837.34;2071463;28;46496;-62
2023/02/13 03:50:04;;;;;;;;;50.40;41.40;;;;;8.98;61.36;102840.88;2070228;28;46300;-62
2023/02/13 03:51:09;;;;;;;;;53.40;43.60;;;;;8.99;61.57;102843.53;2053946;28;47034;-61
2023/02/13 03:52:17;;;;;;;;;55.40;45.60;;;;;9.00;61.39;102845.31;2055237;28;47061;-61
2023/02/13 03:53:18;;;;;;;;;54.20;45.00;;;;;9.00;61.28;102839.13;2055095;28;46654;-62
2023/02/13 03:59:57;;;;;;;;;52.00;43.60;;;;;8.96;61.31;102845.25;2052661;28;46361;-62
2023/02/13 04:01:01;;;;;;;;;54.80;45.80;;;;;8.95;61.56;102844.34;2054475;28;46397;-62
2023/02/13 04:02:15;;;;;;;;;49.00;41.60;;;;;8.95;61.27;102848.75;2053246;28;46460;-60
2023/02/13 04:03:32;;;;;;;;;55.40;43.80;;;;;8.94;61.37;102842.56;2048033;28;45814;-61
2023/02/13 04:04:48;;;;;;;;;53.80;45.20;;;;;8.93;61.56;102843.44;2051184;28;45621;-63
2023/02/13 04:05:55;;;;;;;;;55.60;45.20;;;;;8.93;61.73;102837.25;2046818;28;46662;-62
2023/02/13 04:07:05;;;;;;;;;54.60;45.80;;;;;8.93;61.40;102842.53;2050932;28;46829;-62
2023/02/13 04:08:06;;;;;;;;;55.00;45.20;;;;;8.90;61.41;102838.09;2045790;28;47048;-63
2023/02/13 04:09:06;;;;;;;;;53.75;45.50;;;;;8.89;61.70;102844.22;2071276;28;46626;-61
2023/02/13 04:10:14;;;;;;;;;57.25;45.00;;;;;8.89;61.43;102840.69;2078926;28;46928;-62
2023/02/13 04:11:24;;;;;;;;;54.60;46.60;;;;;8.89;61.44;102840.69;2077218;28;46868;-62
2023/02/13 04:12:31;;;;;;;;;53.40;45.00;;;;;8.88;61.44;102839.78;2079055;28;46744;-63
2023/02/13 04:13:38;;;;;;;;;54.20;44.20;;;;;8.89;61.44;102841.56;2080538;28;46518;-63
2023/02/13 04:14:49;;;;;;;;;54.80;44.20;;;;;8.89;61.55;102843.31;2079398;28;46664;-61
2023/02/13 04:15:56;;;;;;;;;50.80;41.80;;;;;8.90;61.53;102847.78;2082754;28;46551;-62
2023/02/13 04:17:04;;;;;;;;;48.20;41.80;;;;;8.88;61.42;102849.50;2080426;28;46276;-64
2023/02/13 04:18:14;;;;;;;;;55.40;43.60;;;;;8.84;61.22;102843.25;2078920;28;46942;-62
2023/02/13 04:19:15;;;;;;;;;48.20;41.20;;;;;8.83;61.50;102844.13;2070872;28;46353;-62
2023/02/13 04:20:17;;;;;;;;;52.00;42.80;;;;;8.83;61.37;102852.06;2065154;28;46375;-62
2023/02/13 04:21:17;;;;;;;;;56.40;46.40;;;;;8.81;61.45;102856.44;2072949;28;46941;-63
2023/02/13 04:22:18;;;;;;;;;51.75;43.50;;;;;8.81;61.49;102857.34;2083139;28;46853;-62
2023/02/13 04:23:18;;;;;;;;;54.00;43.50;;;;;8.82;61.50;102858.22;2105273;27;45706;-62
2023/02/13 04:24:19;;;;;;;;;51.00;42.75;;;;;8.81;61.57;102853.78;2105762;27;46383;-62
2023/02/13 04:25:20;;;;;;;;;48.25;41.75;;;;;8.80;61.42;102852.00;2104505;27;46220;-62
2023/02/13 04:26:22;;;;;;;;;51.00;42.00;;;;;8.80;61.51;102859.94;2108216;27;46524;-62
2023/02/13 04:27:25;;;;;;;;;48.80;41.20;;;;;8.79;61.60;102853.75;2113692;27;46690;-63
2023/02/13 04:28:26;;;;;;;;;51.60;43.80;;;;;8.79;61.64;102852.88;2112925;27;46842;-62
2023/02/13 04:29:26;;;;;;;;;55.00;45.00;;;;;8.77;61.39;102854.59;2110830;27;46533;-61
2023/02/13 04:30:26;;;;;;;;;55.25;45.00;;;;;8.77;61.68;102857.25;2108733;27;46683;-62
2023/02/13 04:31:27;;;;;;;;;43.25;39.50;;;;;8.77;61.47;102851.97;2107405;27;46905;-62
2023/02/13 04:32:28;;;;;;;;;53.75;43.50;;;;;8.78;61.54;102851.09;2097306;27;46344;-63
2023/02/13 04:33:28;;;;;;;;;50.75;41.25;;;;;8.77;61.40;102851.97;2113396;27;46827;-63
2023/02/13 04:34:28;;;;;;;;;56.00;44.50;;;;;8.75;61.53;102851.91;2098155;27;46450;-62
2023/02/13 04:35:29;;;;;;;;;49.75;41.25;;;;;8.74;61.63;102858.06;2113237;27;46287;-63
2023/02/13 04:36:29;;;;;;;;;51.25;44.00;;;;;8.72;61.60;102849.19;2110873;27;46739;-62
2023/02/13 04:37:30;;;;;;;;;52.50;44.75;;;;;8.70;61.57;102853.56;2100992;27;46501;-62
2023/02/13 04:38:30;;;;;;;;;56.25;43.75;;;;;8.70;61.72;102858.88;2106172;27;46324;-63
2023/02/13 04:39:31;;;;;;;;;52.75;45.00;;;;;8.68;61.58;102854.41;2107986;27;46501;-63
2023/02/13 04:40:31;;;;;;;;;52.50;44.00;;;;;8.69;61.77;102853.53;2111790;27;46351;-62
2023/02/13 04:41:31;;;;;;;;;56.00;45.25;;;;;8.67;61.84;102853.50;2097157;28;45566;-63
2023/02/13 04:42:32;;;;;;;;;49.00;41.50;;;;;8.67;61.82;102842.03;2100600;27;46729;-63
2023/02/13 04:43:32;;;;;;;;;51.00;42.75;;;;;8.66;61.83;102851.72;2096424;28;46221;-63
2023/02/13 04:44:32;;;;;;;;;51.75;44.00;;;;;8.66;61.60;102849.09;2110124;27;46686;-63
2023/02/13 04:45:33;;;;;;;;;54.75;45.75;;;;;8.67;61.85;102839.41;2111329;27;45548;-63
2023/02/13 04:46:33;;;;;;;;;54.75;46.00;;;;;8.66;61.54;102846.44;2103999;28;46483;-63
2023/02/13 04:47:33;;;;;;;;;56.25;45.75;;;;;8.67;61.76;102844.69;2108231;27;46293;-63
2023/02/13 04:48:34;;;;;;;;;48.75;42.75;;;;;8.65;61.72;102842.00;2103706;27;46682;-62
2023/02/13 04:49:34;;;;;;;;;49.75;42.50;;;;;8.65;61.81;102846.41;2111330;27;46470;-63
2023/02/13 04:50:34;;;;;;;;;54.75;46.25;;;;;8.64;61.89;102848.16;2103975;27;46403;-62
2023/02/13 04:51:35;;;;;;;;;52.25;44.25;;;;;8.64;61.97;102840.22;2103651;27;46399;-63
2023/02/13 04:52:35;;;;;;;;;55.00;43.50;;;;;8.62;61.84;102843.69;2104413;27;46104;-63
2023/02/13 04:53:35;;;;;;;;;49.50;42.25;;;;;8.61;61.84;102850.72;2104719;27;45853;-62
2023/02/13 04:54:36;;;;;;;;;51.25;41.75;;;;;8.60;62.00;102838.34;2113011;27;46158;-63
2023/02/13 04:55:36;;;;;;;;;49.00;42.25;;;;;8.61;61.58;102841.91;2112404;27;46574;-63
2023/02/13 04:56:36;;;;;;;;;53.00;43.75;;;;;8.61;61.95;102841.91;2113522;27;46915;-63
2023/02/13 04:57:37;;;;;;;;;52.25;44.00;;;;;8.63;62.15;102842.81;2107462;27;46702;-62
2023/02/13 04:58:37;;;;;;;;;52.75;43.75;;;;;8.62;62.03;102836.63;2103741;27;46637;-62
2023/02/13 04:59:38;;;;;;;;;53.00;44.50;;;;;8.63;62.00;102840.16;2097728;28;47149;-61
2023/02/13 05:00:38;;;;;;;;;50.75;42.25;;;;;8.64;61.78;102844.59;2102681;27;46351;-63
2023/02/13 05:01:39;;;;;;;;;52.50;42.25;;;;;8.64;62.02;102840.22;2109919;27;46477;-63
2023/02/13 05:02:39;;;;;;;;;25.50;18.00;;;;;8.62;61.90;102839.28;2102226;27;45919;-64
2023/02/13 05:03:40;;;;;;;;;51.75;43.00;;;;;8.63;61.99;102845.47;2101489;27;46668;-62
2023/02/13 05:04:40;;;;;;;;;50.75;43.25;;;;;8.63;61.76;102838.41;2101226;27;45877;-63
2023/02/13 05:05:40;;;;;;;;;53.25;44.00;;;;;8.63;62.04;102848.09;2111088;27;46658;-62
2023/02/13 05:06:41;;;;;;;;;51.25;40.75;;;;;8.62;61.79;102843.69;2110245;27;45940;-63
2023/02/13 05:07:41;;;;;;;;;48.50;40.75;;;;;8.61;62.22;102848.09;2105025;28;45474;-61
2023/02/13 05:08:42;;;;;;;;;55.00;44.00;;;;;8.62;61.85;102846.31;2103881;27;46778;-61
2023/02/13 05:09:43;;;;;;;;;55.00;45.50;;;;;8.63;61.94;102850.75;2105949;27;45472;-63
2023/02/13 05:10:43;;;;;;;;;46.00;40.75;;;;;8.63;62.17;102845.47;2108381;27;46202;-63
2023/02/13 05:11:43;;;;;;;;;54.50;44.50;;;;;8.62;62.03;102847.22;2105295;27;46142;-62
2023/02/13 05:12:44;;;;;;;;;53.25;43.50;;;;;8.63;61.96;102845.47;2113120;27;45114;-62
2023/02/13 05:13:44;;;;;;;;;51.50;43.75;;;;;8.63;61.98;102840.16;2112526;27;47868;-62
2023/02/13 05:14:44;;;;;;;;;54.25;45.25;;;;;8.64;62.02;102837.59;2112450;27;45102;-62
2023/02/13 05:15:46;;;;;;;;;51.75;44.00;;;;;8.64;62.05;102836.66;2101549;27;46055;-61
2023/02/13 05:16:48;;;;;;;;;55.20;45.60;;;;;8.63;61.99;102835.75;2103329;27;46425;-61
2023/02/13 05:17:49;;;;;;;;;55.60;44.60;;;;;8.62;62.19;102839.28;2105639;27;46498;-62
2023/02/13 05:18:53;;;;;;;;;49.00;42.75;;;;;8.63;62.19;102837.53;2113196;27;46593;-61
2023/02/13 05:19:53;;;;;;;;;51.40;44.20;;;;;8.61;62.03;102833.97;2112268;27;46486;-62
2023/02/13 05:23:32;;;;;;;;;55.40;43.80;;;;;8.61;61.75;102837.50;2095931;28;46546;-63
2023/02/13 05:24:32;;;;;;;;;51.50;43.75;;;;;8.60;61.91;102830.41;2108100;27;46798;-62
2023/02/13 05:25:34;;;;;;;;;54.25;43.75;;;;;8.61;61.85;102834.84;2113334;27;46606;-63
2023/02/13 05:26:34;;;;;;;;;51.40;43.60;;;;;8.61;61.63;102831.31;2112563;27;45949;-60
2023/02/13 05:27:35;;;;;;;;;52.25;43.50;;;;;8.61;61.79;102831.31;2111755;27;46704;-62
2023/02/13 05:29:54;;;;;;;;;51.60;41.00;;;;;8.61;61.66;102829.56;2097071;28;46924;-60
2023/02/13 05:30:54;;;;;;;;;56.75;44.75;;;;;8.63;61.45;102837.53;2103994;27;46603;-62
2023/02/13 05:31:57;;;;;;;;;50.50;40.50;;;;;8.61;61.63;102833.97;2110293;27;47329;-61
2023/02/13 05:32:57;;;;;;;;;54.20;45.80;;;;;8.61;61.66;102828.66;2096494;28;47066;-61
2023/02/13 05:33:58;;;;;;;;;55.00;45.00;;;;;8.61;61.75;102833.97;2101994;28;46589;-63
2023/02/13 05:34:58;;;;;;;;;54.50;43.50;;;;;8.60;61.58;102830.41;2104036;28;46841;-62